Time;durP1;ratioP1;P1;durP2;ratioP2;P2;SDS_P1;SDS_P2;PMS_P1;PMS_P2;Temp;Humidity;BMP_temperature;BMP_pressure;BME280_temperature;BME280_humidity;BME280_pressure;Samples;Min_cycle;Max_cycle;Signal;HPM_P1;HPM_P2
2022/11/23 00:01:27;;;;;;;4.90;2.30;;;;;;;;;;5072201;28;20047;-60
2022/11/23 00:03:53;;;;;;;8.73;3.03;;;;;;;;;;5073646;28;20035;-61
2022/11/23 00:06:20;;;;;;;4.07;1.93;;;;;;;;;;5076159;28;20044;-60
2022/11/23 00:08:45;;;;;;;6.37;2.50;;;;;;;;;;5072832;28;20020;-59
2022/11/23 00:11:11;;;;;;;5.50;2.27;;;;;;;;;;5078857;28;20396;-61
2022/11/23 00:13:38;;;;;;;5.70;3.10;;;;;;;;;;5071299;28;20040;-60
2022/11/23 00:16:07;;;;;;;4.73;2.40;;;;;;;;;;5070304;28;20013;-61
2022/11/23 00:18:32;;;;;;;7.20;3.40;;;;;;;;;;5066371;28;20021;-60
2022/11/23 00:20:57;;;;;;;5.67;2.90;;;;;;;;;;5074478;28;20027;-60
2022/11/23 00:23:22;;;;;;;10.50;2.97;;;;;;;;;;5071495;28;20103;-60
2022/11/23 00:25:48;;;;;;;8.17;3.43;;;;;;;;;;5070171;28;20028;-60
2022/11/23 00:28:13;;;;;;;5.17;2.90;;;;;;;;;;5073540;28;20025;-60
2022/11/23 00:30:38;;;;;;;4.53;2.40;;;;;;;;;;5073935;28;20029;-61
2022/11/23 00:33:03;;;;;;;7.00;3.43;;;;;;;;;;5069506;28;20028;-60
2022/11/23 00:35:29;;;;;;;5.00;2.83;;;;;;;;;;5069235;28;20636;-60
2022/11/23 00:37:54;;;;;;;5.93;2.60;;;;;;;;;;5068828;28;20024;-60
2022/11/23 00:40:19;;;;;;;4.17;2.03;;;;;;;;;;5074078;28;20021;-60
2022/11/23 00:42:44;;;;;;;7.33;3.00;;;;;;;;;;5074197;28;20035;-61
2022/11/23 00:45:10;;;;;;;5.40;2.60;;;;;;;;;;5074281;28;20032;-60
2022/11/23 00:47:35;;;;;;;3.47;2.07;;;;;;;;;;5076649;28;20037;-61
2022/11/23 00:50:00;;;;;;;5.30;2.50;;;;;;;;;;5069419;28;20028;-60
2022/11/23 00:52:25;;;;;;;4.50;2.70;;;;;;;;;;5073928;28;20824;-60
2022/11/23 00:54:50;;;;;;;5.80;2.47;;;;;;;;;;5070644;28;20071;-60
2022/11/23 00:57:16;;;;;;;4.23;2.27;;;;;;;;;;5073206;28;20021;-61
2022/11/23 00:59:41;;;;;;;4.73;2.30;;;;;;;;;;5075382;28;20024;-60
2022/11/23 01:02:06;;;;;;;5.33;2.57;;;;;;;;;;5077014;28;20131;-60
2022/11/23 01:04:32;;;;;;;5.83;2.23;;;;;;;;;;5081395;28;20028;-60
2022/11/23 01:06:57;;;;;;;4.60;2.30;;;;;;;;;;5070697;28;20158;-60
2022/11/23 01:09:25;;;;;;;4.70;2.30;;;;;;;;;;5069599;28;20028;-60
2022/11/23 01:11:50;;;;;;;4.10;1.87;;;;;;;;;;5071060;28;20025;-60
2022/11/23 01:14:16;;;;;;;5.30;2.43;;;;;;;;;;5071509;28;20040;-60
2022/11/23 01:16:42;;;;;;;5.37;2.60;;;;;;;;;;5072654;28;20392;-61
2022/11/23 01:19:09;;;;;;;4.27;2.30;;;;;;;;;;5073239;28;20024;-60
2022/11/23 01:21:35;;;;;;;3.67;1.97;;;;;;;;;;5074022;28;20480;-60
2022/11/23 01:24:21;;;;;;;6.63;2.47;;;;;;;;;;5072103;28;20031;-60
2022/11/23 01:26:52;;;;;;;2.77;1.47;;;;;;;;;;5053607;28;20094;-60
2022/11/23 01:29:18;;;;;;;4.40;2.10;;;;;;;;;;5068460;28;20067;-60
2022/11/23 01:31:43;;;;;;;5.37;2.60;;;;;;;;;;5068874;28;20024;-60
2022/11/23 01:34:10;;;;;;;4.80;2.50;;;;;;;;;;5070938;28;20392;-61
2022/11/23 01:36:35;;;;;;;3.60;1.93;;;;;;;;;;5070171;28;20028;-60
2022/11/23 01:39:01;;;;;;;4.97;2.53;;;;;;;;;;5071289;28;20495;-60
2022/11/23 01:41:28;;;;;;;2.53;1.33;;;;;;;;;;5071083;28;20102;-60
2022/11/23 01:43:54;;;;;;;4.53;1.90;;;;;;;;;;5069576;28;20029;-60
2022/11/23 01:46:19;;;;;;;5.43;2.57;;;;;;;;;;5071241;28;20494;-60
2022/11/23 01:48:51;;;;;;;4.17;1.80;;;;;;;;;;5070420;28;20487;-60
2022/11/23 01:51:21;;;;;;;6.38;2.55;;;;;;;;;;5072218;28;20031;-60
2022/11/23 01:53:48;;;;;;;4.27;2.00;;;;;;;;;;5070077;28;20033;-60
2022/11/23 01:56:22;;;;;;;4.73;2.00;;;;;;;;;;5067831;28;20563;-60
2022/11/23 01:58:49;;;;;;;4.80;1.70;;;;;;;;;;5069746;28;20443;-61
2022/11/23 02:01:15;;;;;;;4.17;2.00;;;;;;;;;;5072421;28;20090;-60
2022/11/23 02:03:41;;;;;;;7.20;2.30;;;;;;;;;;5073474;28;20036;-60
2022/11/23 02:06:08;;;;;;;3.43;1.80;;;;;;;;;;5068726;28;20024;-60
2022/11/23 02:08:34;;;;;;;5.10;2.30;;;;;;;;;;5074455;28;20111;-60
2022/11/23 02:11:00;;;;;;;4.90;2.30;;;;;;;;;;5074651;28;20099;-60
2022/11/23 02:13:27;;;;;;;4.53;2.10;;;;;;;;;;5070627;28;20472;-60
2022/11/23 02:15:53;;;;;;;6.57;1.93;;;;;;;;;;5070524;28;20431;-60
2022/11/23 02:18:21;;;;;;;5.00;2.10;;;;;;;;;;5070002;28;20017;-60
2022/11/23 02:20:47;;;;;;;5.23;2.50;;;;;;;;;;5071829;28;20048;-60
2022/11/23 02:23:31;;;;;;;4.73;2.20;;;;;;;;;;5070207;28;20078;-61
2022/11/23 02:26:01;;;;;;;6.27;2.30;;;;;;;;;;5077204;28;20435;-60
2022/11/23 02:28:31;;;;;;;5.80;2.43;;;;;;;;;;5071439;28;20017;-60
2022/11/23 02:30:57;;;;;;;7.00;2.30;;;;;;;;;;5072281;28;20015;-60
2022/11/23 02:33:24;;;;;;;4.90;2.50;;;;;;;;;;5070309;28;20082;-60
2022/11/23 02:35:50;;;;;;;6.23;2.30;;;;;;;;;;5069029;28;20086;-60
2022/11/23 02:38:16;;;;;;;8.20;2.60;;;;;;;;;;5071173;28;20027;-61
2022/11/23 02:40:42;;;;;;;8.40;2.57;;;;;;;;;;5072608;28;20016;-61
2022/11/23 02:43:07;;;;;;;8.80;2.50;;;;;;;;;;5074336;28;20027;-60
2022/11/23 02:45:41;;;;;;;8.53;2.60;;;;;;;;;;5068081;28;20592;-60
2022/11/23 02:48:06;;;;;;;7.30;2.40;;;;;;;;;;5064874;28;20029;-60
2022/11/23 02:50:32;;;;;;;6.10;2.60;;;;;;;;;;5075301;28;20074;-61
2022/11/23 02:52:57;;;;;;;8.50;2.80;;;;;;;;;;5070811;28;20115;-60
2022/11/23 02:55:22;;;;;;;7.20;3.23;;;;;;;;;;5073176;28;20063;-60
2022/11/23 02:57:47;;;;;;;8.13;3.00;;;;;;;;;;5073002;28;20102;-61
2022/11/23 03:00:13;;;;;;;6.70;2.93;;;;;;;;;;5072738;28;20487;-60
2022/11/23 03:02:38;;;;;;;7.97;2.40;;;;;;;;;;5079115;28;20491;-60
2022/11/23 03:05:04;;;;;;;9.73;2.70;;;;;;;;;;5071111;28;20029;-60
2022/11/23 03:07:29;;;;;;;6.30;2.40;;;;;;;;;;5077712;28;21834;-60
2022/11/23 03:09:54;;;;;;;9.83;2.70;;;;;;;;;;5073609;28;20016;-60
2022/11/23 03:12:20;;;;;;;11.77;3.30;;;;;;;;;;5074011;28;20039;-60
2022/11/23 03:14:45;;;;;;;7.43;2.60;;;;;;;;;;5074097;28;20487;-60
2022/11/23 03:17:10;;;;;;;7.67;2.80;;;;;;;;;;5073915;28;20380;-61
2022/11/23 03:19:35;;;;;;;7.27;2.70;;;;;;;;;;5074129;28;20024;-61
2022/11/23 03:22:00;;;;;;;9.20;2.67;;;;;;;;;;5073694;28;20019;-61
2022/11/23 03:24:26;;;;;;;8.30;2.87;;;;;;;;;;5072430;28;20012;-61
2022/11/23 03:26:51;;;;;;;12.40;3.23;;;;;;;;;;5077862;28;20028;-60
2022/11/23 03:29:16;;;;;;;8.13;2.77;;;;;;;;;;5072591;28;20056;-61
2022/11/23 03:31:41;;;;;;;8.23;2.40;;;;;;;;;;5076726;28;20083;-61
2022/11/23 03:34:08;;;;;;;9.73;2.60;;;;;;;;;;5073418;28;20057;-61
2022/11/23 03:36:33;;;;;;;7.77;2.53;;;;;;;;;;5073804;28;20027;-61
2022/11/23 03:38:58;;;;;;;8.60;2.80;;;;;;;;;;5073368;28;20461;-61
2022/11/23 03:41:23;;;;;;;9.97;2.60;;;;;;;;;;5073061;28;20025;-61
2022/11/23 03:43:48;;;;;;;7.67;2.77;;;;;;;;;;5073553;28;20020;-60
2022/11/23 03:46:14;;;;;;;10.90;2.73;;;;;;;;;;5073021;28;20017;-61
2022/11/23 03:48:39;;;;;;;9.83;2.80;;;;;;;;;;5074795;28;20388;-61
2022/11/23 03:51:04;;;;;;;7.73;2.37;;;;;;;;;;5069543;28;20423;-61
2022/11/23 03:53:29;;;;;;;13.60;2.90;;;;;;;;;;5074923;28;20020;-61
2022/11/23 03:55:56;;;;;;;7.33;2.50;;;;;;;;;;5072808;28;20077;-61
2022/11/23 03:58:21;;;;;;;8.93;2.47;;;;;;;;;;5074033;28;20017;-60
2022/11/23 04:00:46;;;;;;;10.27;2.60;;;;;;;;;;5069112;28;20550;-61
2022/11/23 04:03:12;;;;;;;8.80;2.30;;;;;;;;;;5073361;28;20049;-61
2022/11/23 04:05:37;;;;;;;11.80;2.37;;;;;;;;;;5075306;28;20573;-61
2022/11/23 04:08:03;;;;;;;11.17;2.57;;;;;;;;;;5076727;28;20013;-61
2022/11/23 04:10:28;;;;;;;8.93;2.50;;;;;;;;;;5072724;28;20396;-61
2022/11/23 04:12:53;;;;;;;8.67;2.67;;;;;;;;;;5074478;28;20063;-61
2022/11/23 04:15:18;;;;;;;8.50;2.60;;;;;;;;;;5073820;28;20013;-61
2022/11/23 04:17:44;;;;;;;7.07;2.10;;;;;;;;;;5066152;28;20016;-62
2022/11/23 04:20:09;;;;;;;9.13;2.90;;;;;;;;;;5073252;28;20020;-61
2022/11/23 04:22:34;;;;;;;9.87;2.50;;;;;;;;;;5069398;28;20110;-61
2022/11/23 04:25:00;;;;;;;8.50;2.67;;;;;;;;;;5078016;28;20467;-61
2022/11/23 04:27:25;;;;;;;9.17;2.40;;;;;;;;;;5075172;28;20043;-61
2022/11/23 04:29:50;;;;;;;14.03;3.40;;;;;;;;;;5073469;28;20029;-61
2022/11/23 04:32:15;;;;;;;6.83;2.60;;;;;;;;;;5067120;28;20028;-60
2022/11/23 04:34:41;;;;;;;10.17;2.90;;;;;;;;;;5064755;28;20024;-61
2022/11/23 04:37:06;;;;;;;8.63;2.60;;;;;;;;;;5068181;28;20116;-60
2022/11/23 04:39:31;;;;;;;11.33;3.00;;;;;;;;;;5077493;28;20024;-61
2022/11/23 04:41:57;;;;;;;9.03;2.97;;;;;;;;;;5072421;28;20013;-60
2022/11/23 04:44:22;;;;;;;8.43;3.03;;;;;;;;;;5075157;28;20078;-60
2022/11/23 04:46:49;;;;;;;10.90;2.53;;;;;;;;;;5072667;28;20031;-61
2022/11/23 04:49:14;;;;;;;10.23;3.20;;;;;;;;;;5071917;28;20020;-60
2022/11/23 04:51:39;;;;;;;10.13;3.17;;;;;;;;;;5072183;28;20025;-60
2022/11/23 04:54:04;;;;;;;8.83;2.83;;;;;;;;;;5072046;28;20029;-61
2022/11/23 04:56:30;;;;;;;10.60;3.27;;;;;;;;;;5071998;28;20059;-60
2022/11/23 04:58:55;;;;;;;11.47;2.90;;;;;;;;;;5071798;28;20036;-61
2022/11/23 05:01:21;;;;;;;9.90;3.20;;;;;;;;;;5069478;28;20025;-60
2022/11/23 05:03:46;;;;;;;13.33;3.47;;;;;;;;;;5071855;28;20036;-61
2022/11/23 05:06:11;;;;;;;10.90;3.23;;;;;;;;;;5072130;28;20158;-61
2022/11/23 05:08:36;;;;;;;7.37;3.40;;;;;;;;;;5068920;28;20023;-61
2022/11/23 05:11:02;;;;;;;12.70;4.10;;;;;;;;;;5070884;28;20020;-62
2022/11/23 05:13:27;;;;;;;10.17;3.80;;;;;;;;;;5070638;28;20020;-61
2022/11/23 05:15:52;;;;;;;12.07;4.50;;;;;;;;;;5068031;28;20027;-62
2022/11/23 05:18:17;;;;;;;12.03;4.30;;;;;;;;;;5054116;28;20056;-61
2022/11/23 05:20:43;;;;;;;13.80;4.33;;;;;;;;;;5052762;28;20036;-60
2022/11/23 05:23:08;;;;;;;16.80;5.37;;;;;;;;;;5047387;28;20028;-61
2022/11/23 05:25:34;;;;;;;12.93;5.23;;;;;;;;;;5054504;28;20032;-61
2022/11/23 05:27:59;;;;;;;15.57;4.27;;;;;;;;;;5049552;28;20671;-61
2022/11/23 05:30:24;;;;;;;13.03;3.77;;;;;;;;;;5065433;28;20033;-61
2022/11/23 05:32:50;;;;;;;11.33;3.63;;;;;;;;;;5049556;28;20029;-60
2022/11/23 05:35:15;;;;;;;14.47;4.30;;;;;;;;;;5046810;28;22040;-61
2022/11/23 05:37:40;;;;;;;13.33;3.63;;;;;;;;;;5050921;28;21851;-61
2022/11/23 05:40:06;;;;;;;10.60;4.23;;;;;;;;;;5048356;28;21768;-61
2022/11/23 05:42:31;;;;;;;12.50;4.40;;;;;;;;;;5051741;28;20104;-62
2022/11/23 05:44:57;;;;;;;16.40;4.40;;;;;;;;;;5049377;28;20021;-61
2022/11/23 05:47:22;;;;;;;10.87;4.93;;;;;;;;;;5047824;28;20038;-61
2022/11/23 05:49:48;;;;;;;8.87;3.77;;;;;;;;;;5070261;28;20095;-61
2022/11/23 05:52:13;;;;;;;10.97;3.97;;;;;;;;;;5074094;28;20028;-60
2022/11/23 05:54:39;;;;;;;9.47;3.60;;;;;;;;;;5064604;28;20017;-62
2022/11/23 05:57:04;;;;;;;11.37;3.70;;;;;;;;;;5049017;28;20035;-61
2022/11/23 05:59:29;;;;;;;11.17;4.40;;;;;;;;;;5053662;28;20086;-60
2022/11/23 06:01:54;;;;;;;12.10;4.97;;;;;;;;;;5060822;28;20153;-61
2022/11/23 06:04:19;;;;;;;13.43;4.23;;;;;;;;;;5058239;28;20067;-60
2022/11/23 06:06:45;;;;;;;9.17;4.00;;;;;;;;;;5048837;28;20072;-60
2022/11/23 06:09:10;;;;;;;11.40;4.53;;;;;;;;;;5062109;28;20448;-63
2022/11/23 06:11:35;;;;;;;11.80;4.13;;;;;;;;;;5066991;28;20038;-61
2022/11/23 06:14:01;;;;;;;11.60;4.67;;;;;;;;;;5061348;28;20029;-61
2022/11/23 06:16:26;;;;;;;10.93;4.53;;;;;;;;;;5066116;28;20056;-60
2022/11/23 06:18:51;;;;;;;15.77;4.70;;;;;;;;;;5070093;28;20047;-61
2022/11/23 06:21:16;;;;;;;11.70;4.50;;;;;;;;;;5069338;28;20106;-61
2022/11/23 06:23:42;;;;;;;12.83;4.30;;;;;;;;;;5066441;28;20048;-60
2022/11/23 06:26:07;;;;;;;12.27;4.80;;;;;;;;;;5062885;28;20028;-61
2022/11/23 06:28:35;;;;;;;14.80;5.30;;;;;;;;;;5058715;28;20574;-62
2022/11/23 06:31:01;;;;;;;12.87;4.60;;;;;;;;;;5065185;28;20023;-60
2022/11/23 06:33:26;;;;;;;12.57;4.73;;;;;;;;;;5070148;28;20446;-60
2022/11/23 06:35:55;;;;;;;12.43;4.53;;;;;;;;;;5068383;28;20194;-60
2022/11/23 06:38:21;;;;;;;9.93;4.37;;;;;;;;;;5068270;28;20142;-60
2022/11/23 06:40:46;;;;;;;10.40;4.37;;;;;;;;;;5068747;28;20107;-60
2022/11/23 06:43:11;;;;;;;16.97;4.40;;;;;;;;;;5069608;28;20030;-60
2022/11/23 06:45:36;;;;;;;11.60;4.30;;;;;;;;;;5067542;28;20048;-60
2022/11/23 06:48:02;;;;;;;19.10;6.47;;;;;;;;;;5070172;28;20028;-60
2022/11/23 06:50:27;;;;;;;13.07;5.40;;;;;;;;;;5065280;28;20017;-62
2022/11/23 06:52:53;;;;;;;14.97;4.97;;;;;;;;;;5057889;28;20029;-61
2022/11/23 06:55:18;;;;;;;12.17;5.10;;;;;;;;;;5059742;28;20028;-62
2022/11/23 06:57:43;;;;;;;15.77;4.17;;;;;;;;;;5068363;28;20013;-60
2022/11/23 07:00:10;;;;;;;10.30;4.73;;;;;;;;;;5070320;28;20020;-61
2022/11/23 07:02:35;;;;;;;9.93;4.17;;;;;;;;;;5069921;28;20055;-60
2022/11/23 07:05:00;;;;;;;10.73;4.37;;;;;;;;;;5070070;28;20048;-61
2022/11/23 07:07:26;;;;;;;13.63;4.70;;;;;;;;;;5067691;28;20012;-61
2022/11/23 07:09:51;;;;;;;10.37;4.47;;;;;;;;;;5069912;28;20013;-61
2022/11/23 07:12:16;;;;;;;12.00;4.40;;;;;;;;;;5069636;28;20027;-62
2022/11/23 07:14:42;;;;;;;13.03;5.00;;;;;;;;;;5069761;28;20040;-61
2022/11/23 07:17:07;;;;;;;10.50;4.57;;;;;;;;;;5069889;28;20423;-61
2022/11/23 07:19:32;;;;;;;16.63;4.53;;;;;;;;;;5069950;28;20017;-61
2022/11/23 07:21:57;;;;;;;12.87;4.43;;;;;;;;;;5079998;28;20021;-61
2022/11/23 07:24:22;;;;;;;15.07;4.70;;;;;;;;;;5069881;28;20024;-61
2022/11/23 07:26:48;;;;;;;14.90;4.70;;;;;;;;;;5069799;28;20051;-61
2022/11/23 07:29:14;;;;;;;11.57;4.40;;;;;;;;;;5069969;28;20040;-61
2022/11/23 07:31:39;;;;;;;11.27;4.20;;;;;;;;;;5069940;28;20603;-61
2022/11/23 07:34:04;;;;;;;8.60;3.60;;;;;;;;;;5070813;28;20360;-61
2022/11/23 07:36:29;;;;;;;8.43;3.70;;;;;;;;;;5069638;28;20055;-61
2022/11/23 07:38:55;;;;;;;10.40;4.10;;;;;;;;;;5073226;28;20051;-61
2022/11/23 07:41:20;;;;;;;10.70;3.50;;;;;;;;;;5072405;28;20483;-62
2022/11/23 07:43:45;;;;;;;10.27;3.90;;;;;;;;;;5073795;28;20044;-61
2022/11/23 07:46:10;;;;;;;10.93;4.33;;;;;;;;;;5073092;28;20012;-61
2022/11/23 07:48:36;;;;;;;8.53;3.60;;;;;;;;;;5073295;28;20155;-60
2022/11/23 07:51:01;;;;;;;11.10;3.97;;;;;;;;;;5073495;28;20047;-61
2022/11/23 07:53:26;;;;;;;12.67;4.17;;;;;;;;;;5073333;28;20020;-61
2022/11/23 07:55:56;;;;;;;10.67;3.90;;;;;;;;;;5073102;28;20486;-61
2022/11/23 07:58:21;;;;;;;12.00;3.90;;;;;;;;;;5072343;28;20024;-61
2022/11/23 08:00:46;;;;;;;10.20;4.17;;;;;;;;;;5073309;28;20023;-61
2022/11/23 08:03:13;;;;;;;8.53;3.53;;;;;;;;;;5072884;28;20055;-61
2022/11/23 08:05:38;;;;;;;10.67;4.00;;;;;;;;;;5070341;28;20028;-61
2022/11/23 08:08:04;;;;;;;11.80;4.13;;;;;;;;;;5072697;28;20098;-61
2022/11/23 08:10:29;;;;;;;10.63;4.03;;;;;;;;;;5072883;28;20423;-61
2022/11/23 08:13:02;;;;;;;10.20;3.90;;;;;;;;;;5072832;28;20403;-61
2022/11/23 08:15:27;;;;;;;17.07;5.07;;;;;;;;;;5075667;28;20460;-60
2022/11/23 08:17:54;;;;;;;8.23;4.40;;;;;;;;;;5072648;28;20074;-61
2022/11/23 08:20:19;;;;;;;11.20;4.20;;;;;;;;;;5075626;28;20039;-61
2022/11/23 08:22:45;;;;;;;8.90;3.60;;;;;;;;;;5072766;28;20472;-61
2022/11/23 08:25:10;;;;;;;9.33;3.67;;;;;;;;;;5072776;28;20028;-61
2022/11/23 08:27:35;;;;;;;9.13;3.60;;;;;;;;;;5072316;28;20032;-61
2022/11/23 08:30:00;;;;;;;11.63;3.93;;;;;;;;;;5072840;28;20040;-61
2022/11/23 08:32:25;;;;;;;12.17;4.23;;;;;;;;;;5071778;28;20460;-61
2022/11/23 08:34:51;;;;;;;8.63;3.93;;;;;;;;;;5072333;28;20645;-61
2022/11/23 08:37:16;;;;;;;11.27;4.33;;;;;;;;;;5070681;28;20369;-61
2022/11/23 08:39:41;;;;;;;8.53;3.83;;;;;;;;;;5072556;28;20098;-61
2022/11/23 08:42:06;;;;;;;12.10;4.00;;;;;;;;;;5072502;28;20525;-61
2022/11/23 08:44:31;;;;;;;10.43;4.50;;;;;;;;;;5072617;28;20427;-61
2022/11/23 08:46:57;;;;;;;12.73;4.20;;;;;;;;;;5072162;28;20479;-61
2022/11/23 08:49:22;;;;;;;12.63;4.30;;;;;;;;;;5071581;28;20498;-61
2022/11/23 08:51:47;;;;;;;12.43;4.77;;;;;;;;;;5072525;28;20060;-61
2022/11/23 08:54:12;;;;;;;8.30;4.40;;;;;;;;;;5072214;28;20017;-62
2022/11/23 08:56:38;;;;;;;10.33;4.37;;;;;;;;;;5071743;28;20032;-61
2022/11/23 08:59:03;;;;;;;7.33;4.30;;;;;;;;;;5072068;28;20024;-62
2022/11/23 09:01:28;;;;;;;11.70;4.63;;;;;;;;;;5072218;28;20096;-61
2022/11/23 09:03:53;;;;;;;11.63;4.67;;;;;;;;;;5072219;28;20031;-62
2022/11/23 09:06:19;;;;;;;10.13;4.23;;;;;;;;;;5071239;28;20024;-61
2022/11/23 09:08:44;;;;;;;9.53;4.20;;;;;;;;;;5071899;28;20086;-61
2022/11/23 09:11:11;;;;;;;8.73;4.30;;;;;;;;;;5072164;28;20020;-61
2022/11/23 09:13:37;;;;;;;10.80;3.70;;;;;;;;;;5072505;28;20419;-61
2022/11/23 09:16:02;;;;;;;10.50;3.97;;;;;;;;;;5071712;28;20058;-61
2022/11/23 09:18:31;;;;;;;12.53;4.30;;;;;;;;;;5071615;28;20012;-61
2022/11/23 09:20:57;;;;;;;10.03;4.13;;;;;;;;;;5074010;28;20028;-61
2022/11/23 09:23:23;;;;;;;10.47;3.80;;;;;;;;;;5050666;28;20023;-61
2022/11/23 09:25:49;;;;;;;11.33;3.60;;;;;;;;;;5071403;28;20029;-61
2022/11/23 09:28:15;;;;;;;7.90;3.50;;;;;;;;;;5071654;28;20059;-61
2022/11/23 09:30:40;;;;;;;10.13;3.80;;;;;;;;;;5071533;28;20031;-61
2022/11/23 09:33:07;;;;;;;9.83;3.47;;;;;;;;;;5071010;28;20025;-61
2022/11/23 09:35:32;;;;;;;8.80;3.47;;;;;;;;;;5071172;28;20020;-61
2022/11/23 09:37:57;;;;;;;8.23;3.17;;;;;;;;;;5071549;28;20020;-61
2022/11/23 09:40:24;;;;;;;9.20;3.20;;;;;;;;;;5070274;28;20024;-61
2022/11/23 09:43:16;;;;;;;10.43;2.73;;;;;;;;;;5071247;28;20033;-61
2022/11/23 09:45:41;;;;;;;;;;;;;;;;;;5071801;28;20357;-61
2022/11/23 09:48:15;;;;;;;6.97;2.65;;;;;;;;;;5071201;28;20375;-61
2022/11/23 09:50:47;;;;;;;7.83;2.93;;;;;;;;;;5070924;28;20502;-61
2022/11/23 09:53:12;;;;;;;;;;;;;;;;;;5071313;28;20521;-61
2022/11/23 09:55:44;;;;;;;8.68;2.60;;;;;;;;;;5071065;28;19995;-61
2022/11/23 09:58:15;;;;;;;4.40;2.20;;;;;;;;;;5069304;28;20017;-61
2022/11/23 10:00:44;;;;;;;6.13;2.00;;;;;;;;;;5075053;28;20016;-61
2022/11/23 10:03:14;;;;;;;6.37;2.17;;;;;;;;;;5070913;28;20029;-61
2022/11/23 10:05:43;;;;;;;6.57;2.43;;;;;;;;;;5077103;28;20038;-62
2022/11/23 10:08:20;;;;;;;7.77;2.50;;;;;;;;;;5070714;28;20016;-61
2022/11/23 10:10:53;;;;;;;6.90;3.00;;;;;;;;;;5070870;28;20097;-62
2022/11/23 10:13:28;;;;;;;11.37;2.73;;;;;;;;;;5069394;28;20491;-61
2022/11/23 10:16:02;;;;;;;9.90;3.00;;;;;;;;;;5068943;28;20143;-62
2022/11/23 10:18:27;;;;;;;8.37;3.07;;;;;;;;;;5070654;28;20013;-61
2022/11/23 10:21:11;;;;;;;9.30;3.00;;;;;;;;;;5072620;28;20536;-61
2022/11/23 10:23:48;;;;;;;10.53;2.90;;;;;;;;;;5070755;28;20024;-62
2022/11/23 10:26:15;;;;;;;9.80;2.70;;;;;;;;;;5068032;28;20020;-61
2022/11/23 10:28:40;;;;;;;9.43;2.90;;;;;;;;;;5070548;28;20028;-62
2022/11/23 10:31:11;;;;;;;9.43;3.10;;;;;;;;;;5070158;28;20134;-61
2022/11/23 10:33:38;;;;;;;8.00;2.72;;;;;;;;;;5069447;28;20036;-61
2022/11/23 10:36:04;;;;;;;8.87;2.43;;;;;;;;;;5070395;28;20443;-61
2022/11/23 10:38:29;;;;;;;7.67;2.70;;;;;;;;;;5070720;28;20051;-61
2022/11/23 10:40:59;;;;;;;8.20;2.57;;;;;;;;;;5070597;28;20107;-61
2022/11/23 10:43:25;;;;;;;10.00;3.03;;;;;;;;;;5070223;28;20025;-60
2022/11/23 10:45:51;;;;;;;8.60;2.60;;;;;;;;;;5070573;28;20460;-61
2022/11/23 10:48:35;;;;;;;15.27;2.83;;;;;;;;;;5069950;28;20047;-61
2022/11/23 10:51:20;;;;;;;10.63;3.27;;;;;;;;;;5070380;28;20480;-61
2022/11/23 10:53:50;;;;;;;6.40;2.20;;;;;;;;;;5070073;28;20017;-61
2022/11/23 10:56:16;;;;;;;8.90;2.40;;;;;;;;;;5066609;28;20020;-61
2022/11/23 10:58:43;;;;;;;7.83;2.37;;;;;;;;;;5070399;28;20024;-61
2022/11/23 11:01:23;;;;;;;11.37;2.50;;;;;;;;;;5066218;28;20016;-61
2022/11/23 11:03:48;;;;;;;9.37;2.23;;;;;;;;;;5069555;28;20044;-61
2022/11/23 11:06:24;;;;;;;7.60;2.30;;;;;;;;;;5068768;28;20044;-61
2022/11/23 11:09:00;;;;;;;10.43;2.40;;;;;;;;;;5070914;28;20077;-61
2022/11/23 11:11:25;;;;;;;9.90;2.37;;;;;;;;;;5076690;28;20028;-61
2022/11/23 11:13:59;;;;;;;11.43;2.30;;;;;;;;;;5074262;28;20479;-61
2022/11/23 11:16:32;;;;;;;7.33;2.30;;;;;;;;;;5074063;28;20012;-61
2022/11/23 11:18:58;;;;;;;8.43;2.10;;;;;;;;;;5074050;28;20668;-61
2022/11/23 11:21:27;;;;;;;11.33;2.10;;;;;;;;;;5074169;28;20009;-61
2022/11/23 11:23:54;;;;;;;12.23;2.20;;;;;;;;;;5072005;28;20028;-62
2022/11/23 11:26:23;;;;;;;5.20;1.70;;;;;;;;;;5073624;28;20431;-60
2022/11/23 11:28:55;;;;;;;8.13;2.03;;;;;;;;;;5073510;28;20031;-61
2022/11/23 11:31:20;;;;;;;8.67;2.00;;;;;;;;;;5073495;28;20539;-61
2022/11/23 11:33:49;;;;;;;10.37;1.83;;;;;;;;;;5073415;28;20155;-60
2022/11/23 11:36:15;;;;;;;8.63;1.60;;;;;;;;;;5073637;28;20392;-60
2022/11/23 11:38:41;;;;;;;9.50;1.80;;;;;;;;;;5072684;28;20039;-60
2022/11/23 11:41:09;;;;;;;8.03;1.60;;;;;;;;;;5073273;28;20017;-61
2022/11/23 11:43:43;;;;;;;8.47;1.33;;;;;;;;;;5073286;28;20021;-60
2022/11/23 11:46:13;;;;;;;7.50;1.60;;;;;;;;;;5072742;28;20016;-60
2022/11/23 11:48:41;;;;;;;7.17;1.37;;;;;;;;;;5069217;28;20423;-60
2022/11/23 11:51:07;;;;;;;7.37;1.57;;;;;;;;;;5073326;28;20044;-60
2022/11/23 11:53:35;;;;;;;9.63;1.83;;;;;;;;;;5072976;28;20549;-61
2022/11/23 11:56:06;;;;;;;8.43;1.60;;;;;;;;;;5072466;28;20432;-60
2022/11/23 11:58:33;;;;;;;12.83;1.70;;;;;;;;;;5073914;28;20012;-60
2022/11/23 12:01:04;;;;;;;6.47;1.50;;;;;;;;;;5077393;28;20435;-60
2022/11/23 12:03:46;;;;;;;5.10;1.60;;;;;;;;;;5072902;28;20038;-60
2022/11/23 12:06:22;;;;;;;7.23;1.43;;;;;;;;;;5072903;28;20028;-60
2022/11/23 12:08:54;;;;;;;5.33;1.67;;;;;;;;;;5080816;28;20082;-60
2022/11/23 12:11:19;;;;;;;7.53;1.70;;;;;;;;;;5072769;28;20103;-60
2022/11/23 12:13:45;;;;;;;7.47;1.40;;;;;;;;;;5072299;28;20103;-61
2022/11/23 12:16:29;;;;;;;6.37;1.57;;;;;;;;;;5070903;28;20020;-61
2022/11/23 12:19:13;;;;;;;6.27;1.70;;;;;;;;;;5071198;28;20020;-61
2022/11/23 12:21:54;;;;;;;5.80;1.70;;;;;;;;;;5072599;28;20016;-60
2022/11/23 12:24:23;;;;;;;5.00;1.23;;;;;;;;;;5072973;28;20016;-60
2022/11/23 12:26:54;;;;;;;5.60;1.20;;;;;;;;;;5072085;28;20020;-60
2022/11/23 12:29:19;;;;;;;5.87;1.57;;;;;;;;;;5072155;28;20017;-60
2022/11/23 12:31:47;;;;;;;7.90;1.40;;;;;;;;;;5072753;28;20029;-60
2022/11/23 12:34:23;;;;;;;6.70;1.30;;;;;;;;;;5072303;28;20013;-60
2022/11/23 12:37:02;;;;;;;6.77;1.50;;;;;;;;;;5072912;28;20019;-60
2022/11/23 12:39:36;;;;;;;5.17;1.10;;;;;;;;;;5072504;28;20040;-61
2022/11/23 12:42:07;;;;;;;6.83;1.30;;;;;;;;;;5069680;28;20036;-60
2022/11/23 12:44:54;;;;;;;9.10;1.52;;;;;;;;;;5069092;28;20020;-60
2022/11/23 12:47:26;;;;;;;7.17;1.57;;;;;;;;;;5071320;28;20017;-60
2022/11/23 12:50:01;;;;;;;5.18;1.30;;;;;;;;;;5072007;28;20016;-60
2022/11/23 12:52:46;;;;;;;8.03;2.07;;;;;;;;;;5071989;28;20017;-60
2022/11/23 12:55:28;;;;;;;5.83;1.10;;;;;;;;;;5030553;28;20036;-60
2022/11/23 12:58:05;;;;;;;9.27;1.60;;;;;;;;;;5072420;28;20400;-62
2022/11/23 13:00:35;;;;;;;7.47;1.33;;;;;;;;;;5072081;28;20051;-62
2022/11/23 13:03:03;;;;;;;10.23;1.60;;;;;;;;;;5072296;28;20149;-62
2022/11/23 13:05:46;;;;;;;7.07;1.10;;;;;;;;;;5068609;28;20012;-62
2022/11/23 13:08:12;;;;;;;7.20;1.57;;;;;;;;;;5071661;28;20435;-62
2022/11/23 13:10:37;;;;;;;7.13;1.40;;;;;;;;;;5071480;28;20020;-61
2022/11/23 13:13:02;;;;;;;14.50;1.50;;;;;;;;;;5071493;28;20036;-62
2022/11/23 13:15:33;;;;;;;6.90;1.33;;;;;;;;;;5077331;28;20031;-61
2022/11/23 13:18:21;;;;;;;7.55;1.50;;;;;;;;;;5071910;28;20075;-62
2022/11/23 13:21:01;;;;;;;10.50;1.50;;;;;;;;;;5062848;28;20025;-62
2022/11/23 13:23:26;;;;;;;4.93;1.27;;;;;;;;;;5071746;28;20487;-62
2022/11/23 13:26:30;;;;;;;6.40;1.30;;;;;;;;;;5071387;28;20012;-62
2022/11/23 13:28:57;;;;;;;8.13;1.40;;;;;;;;;;4989650;28;20022;-60
2022/11/23 13:31:22;;;;;;;7.03;1.30;;;;;;;;;;4989587;28;20026;-60
2022/11/23 13:33:49;;;;;;;5.77;1.30;;;;;;;;;;4989594;28;20034;-60
2022/11/23 13:36:29;;;;;;;5.97;1.20;;;;;;;;;;4989489;28;20018;-60
2022/11/23 13:38:55;;;;;;;5.03;1.40;;;;;;;;;;4989539;28;20133;-60
2022/11/23 13:41:32;;;;;;;4.83;1.10;;;;;;;;;;4989464;28;20033;-59
2022/11/23 13:43:57;;;;;;;8.03;1.53;;;;;;;;;;4989632;28;20026;-59
2022/11/23 13:46:28;;;;;;;6.57;1.30;;;;;;;;;;4990350;28;20660;-59
2022/11/23 13:48:58;;;;;;;5.37;1.10;;;;;;;;;;4989252;28;20109;-60
2022/11/23 13:51:25;;;;;;;6.90;1.37;;;;;;;;;;4989874;28;20090;-60
2022/11/23 13:53:56;;;;;;;5.47;1.27;;;;;;;;;;4989751;28;20034;-60
2022/11/23 13:56:40;;;;;;;7.50;1.47;;;;;;;;;;4988194;28;20018;-60
2022/11/23 13:59:23;;;;;;;7.47;1.40;;;;;;;;;;5009779;28;20099;-60
2022/11/23 14:02:02;;;;;;;11.27;2.33;;;;;;;;;;5069761;28;20067;-59
2022/11/23 14:04:28;;;;;;;9.27;1.50;;;;;;;;;;5070328;28;20373;-60
2022/11/23 14:06:57;;;;;;;9.20;1.40;;;;;;;;;;5070865;28;20158;-60
2022/11/23 14:09:31;;;;;;;9.20;1.70;;;;;;;;;;5076817;28;20024;-60
2022/11/23 14:12:00;;;;;;;10.03;1.60;;;;;;;;;;5072024;28;20024;-60
2022/11/23 14:14:28;;;;;;;7.43;1.63;;;;;;;;;;5070424;28;20017;-61
2022/11/23 14:17:00;;;;;;;6.70;1.70;;;;;;;;;;5069865;28;20044;-62
2022/11/23 14:19:41;;;;;;;7.63;1.57;;;;;;;;;;5070402;28;20020;-62
2022/11/23 14:22:15;;;;;;;9.32;1.65;;;;;;;;;;5074635;28;20539;-61
2022/11/23 14:24:43;;;;;;;10.13;2.23;;;;;;;;;;5070036;28;20024;-61
2022/11/23 14:27:27;;;;;;;9.67;2.03;;;;;;;;;;5070533;28;20447;-61
2022/11/23 14:29:52;;;;;;;10.23;1.70;;;;;;;;;;5069806;28;20020;-61
2022/11/23 14:32:36;;;;;;;9.30;1.57;;;;;;;;;;5070267;28;20017;-61
2022/11/23 14:35:20;;;;;;;9.43;1.60;;;;;;;;;;5070524;28;20020;-61
2022/11/23 14:38:00;;;;;;;10.20;1.53;;;;;;;;;;5070508;28;20029;-62
2022/11/23 14:40:44;;;;;;;7.77;1.60;;;;;;;;;;5067800;28;20548;-61
2022/11/23 14:43:11;;;;;;;7.47;1.40;;;;;;;;;;5069982;28;20020;-61